NCAR-RAP Real-Time Weather Data

Output produced by METARs form (08 May 2021  16:27 UTC)
found at http://weather.rap.ucar.edu/surface/
 
KHFD 081553Z 33006KT 10SM FEW090 13/01 A2986 RMK AO2 SLP110 T01330006
KHFD 081453Z 04005KT 10SM FEW080 13/00 A2987 RMK AO2 SLP114 60000 T01330000 50003
KHFD 081353Z 29004KT 10SM OVC050 12/02 A2988 RMK AO2 RAB33E43 SLP118 P0000 T01170017
KHFD 081253Z 02005KT 10SM OVC065 10/03 A2988 RMK AO2 SLP117 T01000033
KHFD 081153Z 01004KT 10SM OVC090 10/03 A2986 RMK AO2 SLP111 T01000033 10100 20083 53009
KHFD 081053Z 34003KT 10SM OVC095 09/04 A2984 RMK AO2 SLP105 T00940044
KHFD 080953Z 35003KT 10SM OVC110 09/03 A2983 RMK AO2 SLP100 T00890033
KHFD 080853Z AUTO 03005KT 10SM BKN110 09/04 A2983 RMK AO2 SLP102 T00890044 56012
KHFD 080753Z AUTO 00000KT 10SM SCT100 09/04 A2984 RMK AO2 SLP104 T00890044
KHFD 080653Z AUTO 00000KT 10SM FEW120 08/04 A2985 RMK AO2 SLP108 T00830039
KHFD 080553Z AUTO 00000KT 10SM SCT060 BKN075 BKN095 10/03 A2987 RMK AO2 SLP114 T01000028 10122 20089 58012
KHFD 080453Z AUTO 00000KT 10SM BKN060 OVC070 10/03 A2989 RMK AO2 SLP120 T01000033 401780061
KHFD 080353Z 00000KT 10SM BKN070 OVC110 10/04 A2990 RMK AO2 SLP124 T01000039
KHFD 080253Z 15003KT 10SM CLR 09/05 A2990 RMK AO2 SLP126 T00940050 53003
KHFD 080153Z 00000KT 10SM CLR 10/04 A2989 RMK AO2 SLP123 T01000039
KHFD 080053Z 18004KT 10SM CLR 11/03 A2990 RMK AO2 SLP126 T01110028
KHFD 072353Z 19006KT 10SM CLR 12/03 A2990 RMK AO2 SLP123 T01220028 10172 20122 51006
KHFD 072253Z 17008KT 10SM CLR 14/02 A2989 RMK AO2 SLP121 T01390017
KHFD 072153Z 18011KT 10SM CLR 15/02 A2989 RMK AO2 SLP121 T01500017
KHFD 072053Z 16012G21KT 10SM OVC090 16/02 A2988 RMK AO2 SLP117 T01560022 55005
KHFD 071953Z 17011G16KT 10SM FEW065 SCT075 BKN090 17/03 A2987 RMK AO2 SLP115 T01670028
KHFD 071853Z 18007KT 10SM OVC090 17/02 A2987 RMK AO2 SLP114 T01670022
KHFD 071753Z 15007KT 10SM OVC075 16/02 A2989 RMK AO2 SLP123 T01610017 10178 20111 56013
KHFD 071653Z VRB05KT 10SM SCT070 OVC085 17/01 A2990 RMK AO2 SLP124 T01720006
KHFD 071553Z VRB05KT 10SM OVC080 17/01 A2991 RMK AO2 SLP129 T01720011
KHFD 071453Z 12007KT 10SM SCT075 SCT200 17/M01 A2993 RMK AO2 SLP136 T01671006 56008
KHFD 071353Z 01004KT 10SM FEW100 FEW200 16/01 A2993 RMK AO2 SLP136 T01560011
KHFD 071253Z 01007KT 10SM CLR 13/01 A2995 RMK AO2 SLP141 T01330011
KHFD 071153Z 01005KT 10SM CLR 11/02 A2996 RMK AO2 SLP144 T01110017 10111 20061 51001
KHFD 071053Z 02007KT 10SM CLR 09/02 A2996 RMK AO2 SLP144 T00890022
KHFD 070953Z 01005KT 10SM CLR 07/01 A2996 RMK AO2 SLP144 T00670011
KHFD 070853Z 03003KT 10SM CLR 07/02 A2995 RMK AO2 SLP143 T00720017 53002
KHFD 070753Z 03004KT 10SM CLR 08/01 A2995 RMK AO2 SLP142 T00780011
KHFD 070653Z 01006KT 10SM CLR 09/01 A2995 RMK AO2 SLP141 T00940011
KHFD 070553Z 02005KT 10SM SCT080 09/01 A2995 RMK AO2 SLP141 T00940006 10156 20094 50001
KHFD 070453Z 03005KT 10SM SCT080 11/01 A2995 RMK AO2 SLP142 T01060006 401890100
KHFD 070353Z AUTO 36004KT 10SM CLR 13/M01 A2995 RMK AO2 SLP140 T01281011
KHFD 070253Z 33007KT 10SM CLR 13/M01 A2995 RMK AO2 SLP140 T01331011 51014
KHFD 070153Z 32005KT 10SM CLR 14/M01 A2994 RMK AO2 SLP138 T01391011
KHFD 070053Z 29004KT 10SM CLR 15/M01 A2992 RMK AO2 SLP132 T01501011
KHFD 062353Z 30007KT 10SM CLR 16/M02 A2990 RMK AO2 SLP126 T01561017 10189 20156 53014
KHFD 062253Z 30007G16KT 10SM CLR 17/M01 A2989 RMK AO2 SLP120 T01671011
KHFD 062153Z 29009KT 10SM CLR 18/M01 A2988 RMK AO2 SLP117 T01781006
KHFD 062053Z 27010G16KT 10SM CLR 18/M01 A2986 RMK AO2 SLP112 T01781011 55002
KHFD 061953Z 34011G19KT 10SM SCT250 18/00 A2985 RMK AO2 SLP109 T01830000
KHFD 061853Z 34008G20KT 10SM CLR 18/00 A2985 RMK AO2 SLP108 T01830000
KHFD 061753Z 32013G19KT 10SM CLR 18/00 A2987 RMK AO2 SLP115 T01780000 10178 20117 58009
KHFD 061653Z 33007KT 10SM CLR 17/01 A2989 RMK AO2 SLP122 T01670006